Time;durP1;ratioP1;P1;durP2;ratioP2;P2;SDS_P1;SDS_P2;PMS_P1;PMS_P2;Temp;Humidity;BMP_temperature;BMP_pressure;BME280_temperature;BME280_humidity;BME280_pressure;Samples;Min_cycle;Max_cycle;Signal;HPM_P1;HPM_P2
2022/10/11 00:00:40;;;;;;;;;2.00;2.00;;;;;16.57;57.70;101908.59;5068673;28;45502;-65
2022/10/11 00:03:05;;;;;;;;;3.00;2.00;;;;;16.56;57.63;101908.59;5073585;28;45404;-64
2022/10/11 00:05:32;;;;;;;;;2.67;1.33;;;;;16.56;57.23;101905.97;5052519;28;45412;-65
2022/10/11 00:07:57;;;;;;;;;2.00;1.00;;;;;16.57;57.35;101923.59;5067961;27;45592;-65
2022/10/11 00:10:24;;;;;;;;;1.33;1.00;;;;;16.49;56.93;101919.22;5074202;28;46136;-65
2022/10/11 00:12:51;;;;;;;;;1.33;1.00;;;;;16.42;56.56;101912.19;5073963;28;45380;-64
2022/10/11 00:15:20;;;;;;;;;3.00;1.00;;;;;16.45;56.93;101928.03;5055568;28;45445;-66
2022/10/11 00:17:45;;;;;;;;;1.00;1.00;;;;;16.38;56.75;101907.78;5073966;28;45482;-63
2022/10/11 00:20:12;;;;;;;;;1.00;1.00;;;;;16.46;56.93;101936.84;5073030;28;45472;-63
2022/10/11 00:22:39;;;;;;;;;1.00;1.00;;;;;16.36;56.28;101920.13;5057483;28;45431;-65
2022/10/11 00:25:06;;;;;;;;;1.00;1.00;;;;;16.24;56.89;101923.69;5058230;28;45421;-63
2022/10/11 00:27:33;;;;;;;;;3.00;3.00;;;;;16.28;57.01;101937.81;5056157;28;45320;-62
2022/10/11 00:29:58;;;;;;;;;2.00;1.00;;;;;16.16;56.75;101911.38;5061607;28;45545;-63
2022/10/11 00:32:24;;;;;;;;;1.00;0.00;;;;;16.25;57.38;101932.50;5073885;27;45472;-66
2022/10/11 00:34:50;;;;;;;;;1.67;1.00;;;;;16.28;56.70;101938.66;5073637;27;45635;-64
2022/10/11 00:37:16;;;;;;;;;2.00;1.00;;;;;16.24;56.60;101930.75;5052473;28;45481;-65
2022/10/11 00:39:41;;;;;;;;;2.00;2.00;;;;;16.19;56.42;101925.47;5072139;28;45422;-64
2022/10/11 00:42:12;;;;;;;;;2.33;1.00;;;;;16.26;56.23;101943.09;5073764;27;45582;-65
2022/10/11 00:44:41;;;;;;;;;3.00;2.00;;;;;16.27;56.63;101949.25;5076347;28;45473;-64
2022/10/11 00:47:18;;;;;;;;;3.33;1.00;;;;;16.24;56.42;101949.25;5077467;28;45390;-64
2022/10/11 00:49:57;;;;;;;;;1.67;0.67;;;;;16.19;56.24;101943.09;5059137;28;47534;-63
2022/10/11 00:52:41;;;;;;;;;3.00;0.67;;;;;16.25;56.28;101953.66;5077900;28;45549;-64
2022/10/11 00:55:13;;;;;;;;;2.00;2.00;;;;;16.27;56.29;101951.88;5078119;28;45373;-63
2022/10/11 00:57:42;;;;;;;;;1.33;1.00;;;;;16.17;56.28;101943.09;5052874;28;45462;-63
2022/10/11 01:00:11;;;;;;;;;1.00;1.00;;;;;16.25;56.26;101951.00;5066876;28;45374;-64
2022/10/11 01:02:37;;;;;;;;;1.67;1.00;;;;;16.17;55.98;101931.66;5043464;28;45703;-64
2022/10/11 01:05:05;;;;;;;;;1.33;1.33;;;;;16.15;55.46;101933.41;5062071;28;45941;-64
2022/10/11 01:07:32;;;;;;;;;2.00;2.00;;;;;15.96;55.35;101922.00;5059646;28;45940;-65
2022/10/11 01:09:58;;;;;;;;;2.33;2.00;;;;;16.06;55.77;101955.44;5057035;28;45443;-63
2022/10/11 01:12:28;;;;;;;;;3.00;1.33;;;;;15.82;56.20;101919.34;5073544;27;46103;-64
2022/10/11 01:15:24;;;;;;;;;3.00;0.33;;;;;16.00;56.18;101958.09;5073647;27;45683;-64
2022/10/11 01:18:02;;;;;;;;;2.67;1.00;;;;;16.05;56.17;101951.06;5062460;28;45470;-63
2022/10/11 01:20:53;;;;;;;;;1.00;1.00;;;;;16.00;55.79;101940.47;5072662;28;46243;-63
2022/10/11 01:23:43;;;;;;;;;0.67;0.67;;;;;16.06;55.59;101945.78;5072976;28;45658;-64
2022/10/11 01:26:40;;;;;;;;;1.33;1.00;;;;;16.06;55.97;101952.78;5044462;28;45480;-65
2022/10/11 01:29:40;;;;;;;;;0.33;0.33;;;;;15.92;55.64;101923.75;5012623;27;45593;-64
2022/10/11 01:32:20;;;;;;;;;3.00;1.00;;;;;16.02;56.02;101941.38;5073275;28;46474;-64
2022/10/11 01:35:20;;;;;;;;;2.00;0.00;;;;;16.04;55.32;101946.63;5073006;27;45431;-64
2022/10/11 01:38:11;;;;;;;;;1.00;1.00;;;;;15.92;55.52;101929.03;5073366;28;47094;-65
2022/10/11 01:40:51;;;;;;;;;2.33;1.00;;;;;15.97;55.49;101950.16;5055280;28;45635;-64
2022/10/11 01:43:19;;;;;;;;;1.00;0.67;;;;;15.96;55.53;101951.94;5072715;28;45930;-63
2022/10/11 01:45:50;;;;;;;;;1.00;1.00;;;;;15.87;55.44;101941.38;5051452;28;45494;-64
2022/10/11 01:48:16;;;;;;;;;2.00;1.00;;;;;15.89;55.58;101939.59;5051391;28;45514;-65
2022/10/11 01:50:45;;;;;;;;;2.00;0.00;;;;;15.92;55.76;101944.00;5066089;27;45358;-65
2022/10/11 01:53:20;;;;;;;;;3.00;1.00;;;;;15.89;55.30;101950.16;5072673;28;45497;-64
2022/10/11 01:55:54;;;;;;;;;1.00;1.00;;;;;15.61;55.70;101905.28;5072627;27;45569;-65
2022/10/11 01:59:08;;;;;;;;;2.00;0.33;;;;;15.81;55.35;101946.66;5076975;27;45534;-64
2022/10/11 02:01:53;;;;;;;;;3.00;1.67;;;;;15.82;55.51;101951.94;5062103;28;45308;-64
2022/10/11 02:04:32;;;;;;;;;3.00;1.00;;;;;15.81;55.26;101951.94;5076014;27;45474;-64
2022/10/11 02:07:02;;;;;;;;;1.00;1.00;;;;;15.79;55.50;101951.94;5076194;28;45702;-64
2022/10/11 02:09:46;;;;;;;;;0.00;0.00;;;;;15.75;55.56;101942.25;5076386;27;45675;-64
2022/10/11 02:12:15;;;;;;;;;1.00;1.00;;;;;15.69;55.47;101936.94;5076803;27;45441;-64
2022/10/11 02:14:46;;;;;;;;;4.33;1.00;;;;;15.72;55.22;101941.38;5075693;27;45362;-65
2022/10/11 02:17:18;;;;;;;;;1.00;1.00;;;;;15.71;55.27;101940.50;5075838;28;45432;-65
2022/10/11 02:19:49;;;;;;;;;2.00;1.33;;;;;15.65;55.03;101933.41;5077442;28;45358;-65
2022/10/11 02:22:21;;;;;;;;;0.33;0.33;;;;;15.73;55.27;101943.13;5078159;28;45360;-64
2022/10/11 02:24:51;;;;;;;;;3.00;0.33;;;;;15.70;54.75;101938.72;5054234;28;47256;-62
2022/10/11 02:27:22;;;;;;;;;2.00;1.33;;;;;15.55;54.95;101926.38;5069667;28;45566;-65
2022/10/11 02:29:50;;;;;;;;;2.67;0.00;;;;;15.63;55.13;101944.88;5049350;28;45418;-65
2022/10/11 02:32:19;;;;;;;;;1.00;1.00;;;;;15.59;54.66;101941.34;5076307;27;45399;-63
2022/10/11 02:34:56;;;;;;;;;0.33;0.33;;;;;15.54;54.98;101931.66;5075557;28;45295;-63
2022/10/11 02:37:27;;;;;;;;;2.00;1.00;;;;;15.54;55.21;101943.13;5076324;28;45519;-65
2022/10/11 02:40:02;;;;;;;;;1.00;1.00;;;;;15.33;55.26;101908.75;5057854;28;45704;-64
2022/10/11 02:42:38;;;;;;;;;3.33;1.00;;;;;15.51;54.98;101944.84;5077639;27;45330;-63
2022/10/11 02:45:18;;;;;;;;;1.00;1.00;;;;;15.52;55.38;101950.16;5079740;28;45445;-63
2022/10/11 02:47:45;;;;;;;;;1.33;0.00;;;;;15.51;55.12;101936.94;5079928;28;45335;-64
2022/10/11 02:50:11;;;;;;;;;2.00;1.00;;;;;15.45;54.92;101930.78;5079823;27;45369;-65
2022/10/11 02:52:37;;;;;;;;;1.00;1.00;;;;;15.53;54.72;101951.03;5080121;28;45268;-65
2022/10/11 02:55:03;;;;;;;;;0.33;0.33;;;;;15.52;54.99;101949.25;5079364;28;45620;-64
2022/10/11 02:57:29;;;;;;;;;4.00;1.00;;;;;15.50;54.96;101945.75;5071493;27;45420;-64
2022/10/11 02:59:55;;;;;;;;;2.33;1.00;;;;;15.47;55.21;101947.50;5056566;28;45485;-64
2022/10/11 03:02:20;;;;;;;;;3.00;1.67;;;;;15.42;54.80;101938.72;5060332;28;45450;-63
2022/10/11 03:04:46;;;;;;;;;3.33;2.00;;;;;15.46;54.87;101939.56;5070319;27;46283;-65
2022/10/11 03:07:12;;;;;;;;;3.67;1.00;;;;;15.40;54.80;101939.56;5065083;28;45521;-64
2022/10/11 03:09:38;;;;;;;;;1.00;1.00;;;;;15.38;54.93;101941.34;5071172;28;47031;-65
2022/10/11 03:12:04;;;;;;;;;1.00;1.00;;;;;15.41;54.74;101943.97;5056198;28;45607;-64
2022/10/11 03:14:30;;;;;;;;;1.00;1.00;;;;;15.45;54.74;101953.66;5074965;28;45881;-64
2022/10/11 03:16:56;;;;;;;;;1.00;1.00;;;;;15.46;54.75;101950.13;5060878;28;45207;-64
2022/10/11 03:19:21;;;;;;;;;1.33;1.00;;;;;15.42;54.70;101941.34;5076340;28;45310;-63
2022/10/11 03:21:47;;;;;;;;;0.00;0.00;;;;;15.46;54.56;101940.44;5075661;27;45427;-63
2022/10/11 03:24:12;;;;;;;;;1.00;1.00;;;;;15.45;54.17;101945.75;5076335;27;46004;-64
2022/10/11 03:26:41;;;;;;;;;1.00;1.00;;;;;15.48;54.25;101951.91;5079552;27;45557;-64
2022/10/11 03:29:06;;;;;;;;;1.00;0.00;;;;;15.45;54.21;101954.53;5077449;28;45609;-64
2022/10/11 03:31:32;;;;;;;;;0.00;0.00;;;;;15.46;54.76;101961.56;5074819;27;45643;-63
2022/10/11 03:33:57;;;;;;;;;0.67;0.67;;;;;15.41;54.09;101957.16;5060651;28;45991;-64
2022/10/11 03:36:23;;;;;;;;;0.33;0.33;;;;;15.41;53.85;101951.91;5057423;28;45461;-64
2022/10/11 03:38:48;;;;;;;;;1.00;1.00;;;;;15.36;53.92;101941.31;5076620;28;45353;-64
2022/10/11 03:41:14;;;;;;;;;2.33;1.00;;;;;15.34;54.36;101958.91;5078115;27;45800;-64
2022/10/11 03:43:39;;;;;;;;;1.67;0.67;;;;;15.37;54.27;101965.94;5078966;28;45534;-63
2022/10/11 03:46:05;;;;;;;;;1.00;1.00;;;;;15.32;54.21;101950.09;5075736;28;45760;-64
2022/10/11 03:48:30;;;;;;;;;2.00;2.00;;;;;15.25;54.30;101951.84;5074768;27;45388;-63
2022/10/11 03:50:56;;;;;;;;;1.00;1.00;;;;;15.30;53.79;101956.25;5074318;28;45401;-63
2022/10/11 03:53:22;;;;;;;;;1.67;0.00;;;;;15.27;53.82;101959.78;5076081;28;46248;-64
2022/10/11 03:55:52;;;;;;;;;1.00;1.00;;;;;15.27;54.04;101971.22;5060390;28;45184;-64
2022/10/11 03:58:18;;;;;;;;;1.00;1.00;;;;;15.11;54.19;101957.97;5079109;28;45491;-63
2022/10/11 04:00:44;;;;;;;;;1.00;1.00;;;;;15.14;54.43;101974.72;5078863;28;45292;-64
2022/10/11 04:03:09;;;;;;;;;4.00;1.33;;;;;15.08;53.95;101977.31;5078502;28;45450;-63
2022/10/11 04:05:35;;;;;;;;;1.33;1.00;;;;;15.00;54.33;101966.75;5052654;28;45513;-63
2022/10/11 04:08:01;;;;;;;;;2.33;1.00;;;;;14.82;54.85;101971.94;5061163;28;45495;-64
2022/10/11 04:10:26;;;;;;;;;2.00;1.33;;;;;14.81;54.67;101984.25;5079162;28;45314;-64
2022/10/11 04:12:52;;;;;;;;;1.67;1.00;;;;;14.74;55.22;101973.69;5075493;28;45966;-64
2022/10/11 04:15:17;;;;;;;;;1.00;1.00;;;;;14.66;55.20;101967.47;5058319;28;45256;-64
2022/10/11 04:17:43;;;;;;;;;1.00;0.33;;;;;14.79;54.87;101986.00;5053487;28;45551;-64
2022/10/11 04:20:09;;;;;;;;;1.00;1.00;;;;;14.67;55.11;101985.97;5064411;28;45529;-63
2022/10/11 04:22:35;;;;;;;;;4.00;2.00;;;;;14.50;54.98;101975.28;5054465;28;47362;-64
2022/10/11 04:25:01;;;;;;;;;3.00;1.00;;;;;14.49;55.06;101991.09;5060958;27;45460;-64
2022/10/11 04:27:28;;;;;;;;;4.00;1.00;;;;;14.41;55.11;101984.03;5053117;28;45440;-64
2022/10/11 04:29:54;;;;;;;;;3.33;1.00;;;;;14.35;55.16;101994.50;5062880;28;45328;-64
2022/10/11 04:32:20;;;;;;;;;3.00;2.00;;;;;14.04;55.44;101963.56;5056378;28;45580;-64
2022/10/11 04:34:45;;;;;;;;;3.00;1.00;;;;;14.04;56.14;101992.53;5051421;28;45724;-63
2022/10/11 04:37:11;;;;;;;;;4.00;2.00;;;;;14.07;56.91;102001.38;5054515;28;45370;-63
2022/10/11 04:39:37;;;;;;;;;1.00;1.00;;;;;14.03;56.65;101989.03;5048509;28;45510;-62
2022/10/11 04:42:03;;;;;;;;;2.00;1.00;;;;;13.99;56.84;101987.22;5054010;28;45643;-62
2022/10/11 04:44:28;;;;;;;;;1.00;1.00;;;;;14.03;55.94;102001.31;5056284;28;45412;-64
2022/10/11 04:46:54;;;;;;;;;3.00;1.00;;;;;14.00;56.04;101989.91;5053353;28;46190;-64
2022/10/11 04:49:21;;;;;;;;;26.00;20.00;;;;;13.98;56.87;101998.66;5053895;28;45502;-63
2022/10/11 04:51:46;;;;;;;;;5.67;4.33;;;;;13.97;55.84;101995.13;5035005;28;46809;-64
2022/10/11 04:54:12;;;;;;;;;1.00;1.00;;;;;13.90;56.12;101995.94;5053201;28;45525;-65
2022/10/11 04:56:37;;;;;;;;;5.00;1.33;;;;;13.86;55.93;101990.66;5057496;28;45825;-64
2022/10/11 04:59:03;;;;;;;;;2.33;0.33;;;;;13.78;55.95;101994.06;5053525;28;45442;-64
2022/10/11 05:01:29;;;;;;;;;6.67;2.00;;;;;13.80;56.44;101994.09;5052118;28;46414;-63
2022/10/11 05:03:54;;;;;;;;;3.00;1.33;;;;;13.82;56.18;101994.13;5060859;28;45702;-64
2022/10/11 05:06:20;;;;;;;;;1.00;1.00;;;;;13.74;56.32;101983.53;5071616;28;45588;-64
2022/10/11 05:08:45;;;;;;;;;2.00;2.00;;;;;13.80;56.38;102002.00;5071104;28;45580;-64
2022/10/11 05:11:13;;;;;;;;;3.00;1.00;;;;;13.66;56.40;101983.44;5065086;28;46725;-63
2022/10/11 05:13:39;;;;;;;;;1.00;1.00;;;;;13.83;57.04;101998.50;5064735;28;45434;-63
2022/10/11 05:16:05;;;;;;;;;2.67;2.00;;;;;13.92;56.42;101996.84;5070788;28;45477;-64
2022/10/11 05:18:30;;;;;;;;;4.00;2.00;;;;;14.01;56.10;101996.03;5052494;28;45331;-64
2022/10/11 05:21:20;;;;;;;;;1.00;1.00;;;;;14.00;56.27;101984.63;5057683;28;45540;-64
2022/10/11 05:23:47;;;;;;;;;3.00;1.67;;;;;14.12;56.30;101993.50;5056358;28;45417;-63
2022/10/11 05:26:14;;;;;;;;;1.67;1.00;;;;;14.01;55.98;101990.78;5051409;28;45503;-65
2022/10/11 05:28:40;;;;;;;;;5.67;2.00;;;;;13.93;55.79;101995.09;5063121;28;45613;-64
2022/10/11 05:31:05;;;;;;;;;4.00;1.00;;;;;13.86;56.14;101990.66;5059282;28;45477;-63
2022/10/11 05:34:00;;;;;;;;;4.00;1.33;;;;;13.87;56.44;102013.47;5068824;28;45470;-66
2022/10/11 05:36:26;;;;;;;;;1.33;1.00;;;;;13.85;56.30;102002.91;5067813;28;45530;-66
2022/10/11 05:38:51;;;;;;;;;2.00;1.00;;;;;13.81;56.51;102008.13;5072597;27;45365;-64
2022/10/11 05:41:17;;;;;;;;;4.00;1.00;;;;;13.70;56.51;101987.88;5058282;28;45461;-65
2022/10/11 05:43:45;;;;;;;;;2.00;1.67;;;;;13.87;56.26;102016.97;5057578;28;45462;-64
2022/10/11 05:46:12;;;;;;;;;2.00;2.00;;;;;13.75;55.93;102006.34;5079641;28;45300;-65
2022/10/11 05:48:37;;;;;;;;;1.00;1.00;;;;;13.72;56.35;101998.44;5058516;28;45288;-65
2022/10/11 05:51:06;;;;;;;;;3.67;1.00;;;;;13.62;56.22;101992.19;5067396;27;45603;-64
2022/10/11 05:53:32;;;;;;;;;3.33;1.00;;;;;13.67;56.50;102000.16;5058750;28;45979;-65
2022/10/11 05:55:58;;;;;;;;;1.00;1.00;;;;;13.76;56.10;102001.09;5072035;28;45504;-65
2022/10/11 05:58:25;;;;;;;;;1.00;1.00;;;;;13.88;55.92;102013.50;5069521;28;45426;-65
2022/10/11 06:00:50;;;;;;;;;3.00;2.00;;;;;13.90;56.20;102003.84;5077938;28;45593;-65
2022/10/11 06:03:31;;;;;;;;;1.00;1.00;;;;;13.90;55.77;102014.38;5066068;27;45704;-67
2022/10/11 06:06:07;;;;;;;;;2.00;2.00;;;;;13.86;55.78;102012.59;5060110;28;45435;-66
2022/10/11 06:08:32;;;;;;;;;2.33;2.00;;;;;13.68;56.95;102008.03;5064716;28;45461;-65
2022/10/11 06:10:58;;;;;;;;;1.00;1.00;;;;;13.75;56.73;102012.50;5056947;28;45581;-64
2022/10/11 06:13:23;;;;;;;;;1.00;1.00;;;;;13.69;56.93;102001.91;5076104;28;45487;-65
2022/10/11 06:15:49;;;;;;;;;2.00;1.00;;;;;13.67;56.17;102000.16;5075909;27;45733;-64
2022/10/11 06:18:14;;;;;;;;;0.00;0.00;;;;;13.70;56.44;102015.97;5078795;28;45822;-64
2022/10/11 06:20:40;;;;;;;;;1.33;1.33;;;;;13.60;55.88;101990.44;5070480;27;46846;-63
2022/10/11 06:23:15;;;;;;;;;3.00;2.00;;;;;13.74;56.21;102020.41;5049169;28;46631;-65
2022/10/11 06:25:41;;;;;;;;;2.00;2.00;;;;;13.84;56.27;102027.50;5052306;28;45744;-65
2022/10/11 06:28:06;;;;;;;;;1.00;1.00;;;;;13.91;55.93;102024.06;5059125;28;45649;-65
2022/10/11 06:30:32;;;;;;;;;2.00;2.00;;;;;13.95;55.61;102028.50;5054994;28;46388;-64
2022/10/11 06:32:58;;;;;;;;;7.00;2.00;;;;;13.97;55.20;102032.00;5060313;28;45477;-66
2022/10/11 06:35:23;;;;;;;;;4.00;2.33;;;;;14.01;55.08;102038.19;5044545;28;45366;-63
2022/10/11 06:37:50;;;;;;;;;1.00;1.00;;;;;13.90;54.91;102013.50;5063672;28;45330;-64
2022/10/11 06:40:16;;;;;;;;;2.33;2.33;;;;;13.95;55.65;102028.50;5057399;28;45451;-65
2022/10/11 06:42:41;;;;;;;;;1.00;1.00;;;;;14.03;55.23;102036.44;5054308;28;45359;-65
2022/10/11 06:45:07;;;;;;;;;2.33;2.33;;;;;13.94;55.59;102039.00;5053839;28;45530;-64
2022/10/11 06:47:33;;;;;;;;;2.33;2.33;;;;;13.88;55.84;102026.66;5057319;28;45425;-63
2022/10/11 06:49:58;;;;;;;;;3.00;3.00;;;;;13.90;55.84;102040.72;5055204;28;45443;-64
2022/10/11 06:52:25;;;;;;;;;2.33;1.00;;;;;13.88;55.83;102023.13;5058032;28;45450;-63
2022/10/11 06:54:50;;;;;;;;;1.67;1.67;;;;;14.01;55.81;102032.91;5055144;28;45620;-64
2022/10/11 06:57:16;;;;;;;;;4.67;2.00;;;;;13.83;55.76;102012.56;5054643;28;45832;-63
2022/10/11 06:59:41;;;;;;;;;4.33;2.00;;;;;14.00;55.24;102036.44;5039942;28;46746;-64
2022/10/11 07:02:08;;;;;;;;;5.33;2.00;;;;;14.07;55.25;102051.41;5059196;28;46447;-64
2022/10/11 07:04:33;;;;;;;;;4.00;2.67;;;;;14.03;55.46;102040.84;5057911;28;45434;-64
2022/10/11 07:06:59;;;;;;;;;6.33;2.33;;;;;13.91;54.94;102029.31;5058628;28;45481;-64
2022/10/11 07:09:25;;;;;;;;;2.67;2.33;;;;;14.02;54.55;102050.47;5072041;28;45516;-63
2022/10/11 07:11:50;;;;;;;;;2.67;2.67;;;;;13.86;55.10;102044.22;5043364;28;45514;-64
2022/10/11 07:14:16;;;;;;;;;2.33;2.00;;;;;13.92;55.63;102052.16;5068060;28;45355;-66
2022/10/11 07:16:41;;;;;;;;;3.33;1.33;;;;;13.93;54.96;102048.66;5065022;28;45700;-66
2022/10/11 07:19:07;;;;;;;;;5.00;1.67;;;;;14.10;54.39;102061.09;5056653;28;46456;-64
2022/10/11 07:21:34;;;;;;;;;2.67;1.00;;;;;14.15;54.36;102057.63;5069228;27;45527;-64
2022/10/11 07:24:00;;;;;;;;;3.67;2.00;;;;;14.15;53.60;102062.88;5071535;28;45878;-62
2022/10/11 07:26:26;;;;;;;;;5.33;2.00;;;;;14.19;54.37;102066.44;5060876;28;45401;-66
2022/10/11 07:28:51;;;;;;;;;2.33;2.00;;;;;14.19;53.59;102069.97;5058257;28;45462;-64
2022/10/11 07:31:22;;;;;;;;;2.33;2.33;;;;;14.16;53.81;102074.31;5040042;28;45366;-63
2022/10/11 07:33:48;;;;;;;;;2.00;2.00;;;;;14.06;53.55;102057.53;5058666;28;45481;-63
2022/10/11 07:36:14;;;;;;;;;3.00;3.00;;;;;14.11;53.08;102074.25;5057728;28;45556;-65
2022/10/11 07:38:42;;;;;;;;;2.00;1.00;;;;;14.20;53.95;102076.09;5052253;28;48190;-67
2022/10/11 07:41:08;;;;;;;;;3.67;1.33;;;;;14.32;53.12;102076.19;5038534;28;45742;-64
2022/10/11 07:43:35;;;;;;;;;4.00;2.00;;;;;14.33;52.63;102072.72;5058493;28;45419;-65
2022/10/11 07:46:02;;;;;;;;;2.33;2.33;;;;;14.43;52.44;102085.09;5058947;28;45544;-64
2022/10/11 07:48:30;;;;;;;;;3.33;1.00;;;;;14.46;51.89;102084.22;5051014;27;46137;-65
2022/10/11 07:51:07;;;;;;;;;3.00;3.00;;;;;14.42;52.14;102072.75;5053488;28;45438;-64
2022/10/11 07:53:44;;;;;;;;;2.67;2.33;;;;;14.40;51.61;102087.72;5057386;28;45388;-64
2022/10/11 07:56:12;;;;;;;;;1.33;1.33;;;;;14.45;51.98;102089.47;5053680;28;45371;-65
2022/10/11 07:58:39;;;;;;;;;2.67;2.67;;;;;14.51;52.11;102097.44;5070572;27;46492;-64
2022/10/11 08:01:05;;;;;;;;;3.00;3.00;;;;;14.59;51.65;102091.41;5053227;28;45932;-66
2022/10/11 08:03:31;;;;;;;;;4.00;2.00;;;;;14.58;51.30;102071.16;5055616;28;45432;-64
2022/10/11 08:06:04;;;;;;;;;2.33;2.33;;;;;14.74;50.88;102097.66;5040155;28;45511;-65
2022/10/11 08:08:30;;;;;;;;;2.67;2.00;;;;;14.83;51.67;102093.31;5066909;28;45512;-63
2022/10/11 08:10:57;;;;;;;;;1.00;1.00;;;;;15.08;50.75;102109.25;5053195;28;45420;-63
2022/10/11 08:13:23;;;;;;;;;3.00;2.00;;;;;14.82;50.57;102022.94;5074754;28;45534;-64
2022/10/11 08:15:49;;;;;;;;;3.00;2.00;;;;;15.43;50.18;102095.34;5077400;27;45781;-63
2022/10/11 08:18:17;;;;;;;;;2.33;2.00;;;;;15.46;49.42;102101.50;5072090;28;46791;-65
2022/10/11 08:20:43;;;;;;;;;6.33;4.00;;;;;15.39;49.94;102101.47;5073426;28;45502;-64
2022/10/11 08:23:09;;;;;;;;;3.00;2.00;;;;;15.37;49.95;102095.31;5070639;28;45464;-64
2022/10/11 08:25:39;;;;;;;;;3.00;2.00;;;;;15.40;50.37;102082.09;5077881;28;45424;-63
2022/10/11 08:28:06;;;;;;;;;2.00;2.00;;;;;15.76;50.01;102122.78;5074090;27;45958;-63
2022/10/11 08:30:32;;;;;;;;;6.33;3.00;;;;;15.94;49.47;102104.28;5073863;28;45424;-63
2022/10/11 08:32:57;;;;;;;;;2.00;2.00;;;;;15.92;48.84;102116.63;5078233;28;45642;-64
2022/10/11 08:35:23;;;;;;;;;4.00;3.00;;;;;15.87;49.22;102107.81;5075617;28;45440;-64
2022/10/11 08:37:49;;;;;;;;;2.33;1.33;;;;;15.89;48.90;102109.56;5073829;28;46473;-63
2022/10/11 08:40:18;;;;;;;;;2.33;2.00;;;;;16.07;49.03;102103.44;5073345;28;45791;-63
2022/10/11 08:42:52;;;;;;;;;1.33;1.00;;;;;16.30;48.43;102116.69;5052204;28;45523;-66
2022/10/11 08:45:30;;;;;;;;;2.00;2.00;;;;;16.35;47.93;102108.75;5071099;28;45510;-63
2022/10/11 08:48:05;;;;;;;;;5.00;2.67;;;;;16.25;48.14;102112.25;5072812;28;45481;-63
2022/10/11 08:50:31;;;;;;;;;3.67;3.00;;;;;16.12;48.49;102106.09;5068306;28;45399;-64
2022/10/11 08:53:17;;;;;;;;;3.00;3.00;;;;;16.30;49.51;102105.22;5049455;27;45479;-63
2022/10/11 08:55:49;;;;;;;;;4.00;2.00;;;;;16.66;48.77;102116.69;5054519;28;46012;-63
2022/10/11 08:58:20;;;;;;;;;4.00;1.67;;;;;16.85;48.01;102114.91;5035932;28;46053;-63
2022/10/11 09:00:49;;;;;;;;;1.00;1.00;;;;;17.10;47.67;102111.28;5052838;28;45489;-63
2022/10/11 09:03:41;;;;;;;;;1.00;1.00;;;;;17.38;47.32;102119.16;5042220;28;45590;-62
2022/10/11 09:06:25;;;;;;;;;1.00;1.00;;;;;17.59;47.24;102129.63;5057316;28;45443;-63
2022/10/11 09:09:47;;;;;;;;;6.33;3.33;;;;;17.60;45.30;102126.09;5050296;28;45552;-62
2022/10/11 09:12:51;;;;;;;;;3.33;3.33;;;;;17.52;46.07;102127.03;4990255;28;45493;-64
2022/10/11 09:15:33;;;;;;;;;3.67;3.00;;;;;17.36;45.01;102119.13;4986024;28;45544;-62
2022/10/11 09:18:36;;;;;;;;;0.00;0.00;;;;;17.20;45.21;102119.22;5052211;28;45580;-62
2022/10/11 09:21:12;;;;;;;;;4.00;3.67;;;;;17.23;46.04;102114.78;5072808;28;45772;-62
2022/10/11 09:24:03;;;;;;;;;3.00;2.00;;;;;17.47;45.82;102115.59;5066004;28;45500;-63
2022/10/11 09:26:53;;;;;;;;;4.00;3.00;;;;;17.60;45.47;102114.63;5076647;28;45601;-63
2022/10/11 09:29:27;;;;;;;;;7.00;6.33;;;;;17.69;45.43;102106.63;5074290;28;45462;-63
2022/10/11 09:31:55;;;;;;;;;5.00;4.00;;;;;17.86;44.85;102103.91;5075899;27;46351;-63
2022/10/11 09:34:24;;;;;;;;;4.00;4.00;;;;;17.92;44.60;102108.31;5077117;27;45231;-63
2022/10/11 09:36:56;;;;;;;;;5.00;3.00;;;;;17.98;44.81;102114.41;5076220;27;45410;-62
2022/10/11 09:39:27;;;;;;;;;3.67;3.00;;;;;18.16;44.90;102105.47;5077734;27;45505;-62
2022/10/11 09:42:09;;;;;;;;;3.67;3.67;;;;;18.49;44.92;102107.84;5075073;28;45595;-62
2022/10/11 09:44:38;;;;;;;;;2.00;2.00;;;;;18.89;44.35;102096.84;5072678;27;45398;-62
2022/10/11 09:47:05;;;;;;;;;2.00;2.00;;;;;19.44;43.61;102099.72;5072361;28;45359;-62
2022/10/11 09:49:38;;;;;;;;;3.00;2.00;;;;;19.97;43.13;102096.38;5073150;28;45476;-62
2022/10/11 09:52:10;;;;;;;;;2.00;2.00;;;;;20.54;42.40;102090.97;5072652;27;45464;-63
2022/10/11 09:54:41;;;;;;;;;5.00;5.00;;;;;21.53;39.65;102087.28;5050769;28;45516;-63
2022/10/11 09:57:19;;;;;;;;;10.00;4.00;;;;;23.47;36.35;102073.31;5035226;28;45443;-62
2022/10/11 10:00:18;;;;;;;;;4.33;4.33;;;;;25.62;33.04;102082.81;5072831;28;45612;-62
2022/10/11 10:02:46;;;;;;;;;4.00;4.00;;;;;27.29;30.23;102064.91;5072512;28;46646;-63
2022/10/11 10:05:14;;;;;;;;;3.00;3.00;;;;;28.68;29.08;102069.66;5072897;28;45440;-63
2022/10/11 10:07:58;;;;;;;;;2.00;1.67;;;;;29.99;27.65;102065.97;5061673;27;45426;-62
2022/10/11 10:10:34;;;;;;;;;5.67;4.00;;;;;30.71;26.57;102060.78;5055348;28;45653;-62
2022/10/11 10:13:03;;;;;;;;;5.50;3.25;;;;;30.99;25.67;102065.31;5074471;28;45473;-62
2022/10/11 10:15:45;;;;;;;;;6.00;2.50;;;;;32.08;24.99;102060.94;5073274;27;45390;-62
2022/10/11 10:18:20;;;;;;;;;4.50;3.00;;;;;32.72;24.25;102044.75;5072279;28;45727;-64
2022/10/11 10:20:52;;;;;;;;;4.25;3.00;;;;;33.60;23.10;102060.13;5074608;27;45509;-63
2022/10/11 10:23:23;;;;;;;;;4.50;3.50;;;;;33.49;21.76;102058.22;5071242;28;46797;-63
2022/10/11 10:25:50;;;;;;;;;7.20;4.00;;;;;34.09;21.89;102054.59;5080097;27;45394;-62
2022/10/11 10:28:23;;;;;;;;;4.75;4.25;;;;;34.48;21.03;102055.19;5076529;27;45849;-63
2022/10/11 10:30:53;;;;;;;;;4.75;3.75;;;;;35.29;21.37;102052.41;5076669;28;45399;-64
2022/10/11 10:33:20;;;;;;;;;3.60;3.00;;;;;36.13;19.98;102048.06;5076991;28;45587;-62
2022/10/11 10:35:51;;;;;;;;;4.40;4.20;;;;;36.45;20.09;102052.56;5062129;28;45350;-62
2022/10/11 10:38:28;;;;;;;;;7.80;5.20;;;;;35.80;19.27;102051.78;5077321;27;45636;-62
2022/10/11 10:41:02;;;;;;;;;6.40;4.00;;;;;35.80;19.78;102049.91;5075699;28;45440;-62
2022/10/11 10:43:39;;;;;;;;;4.40;2.20;;;;;36.78;19.02;102056.06;5056656;28;47952;-63
2022/10/11 10:46:21;;;;;;;;;8.00;4.20;;;;;37.01;18.75;102045.81;5067630;27;45529;-63
2022/10/11 10:49:18;;;;;;;;;3.60;3.60;;;;;36.88;18.36;102052.41;5075369;28;45326;-63
2022/10/11 10:52:04;;;;;;;;;7.40;5.00;;;;;36.84;18.36;102052.81;5063278;28;45717;-65
2022/10/11 10:54:40;;;;;;;;;3.60;3.60;;;;;36.78;18.31;102048.78;5057605;28;46812;-63
2022/10/11 10:57:29;;;;;;;;;2.80;2.20;;;;;37.68;18.19;102047.91;5073244;27;45304;-62
2022/10/11 11:00:18;;;;;;;;;4.40;3.40;;;;;38.40;17.58;102040.22;5053335;28;45813;-63
2022/10/11 11:02:53;;;;;;;;;4.00;2.80;;;;;39.13;17.29;102045.00;5044557;28;45602;-63
2022/10/11 11:05:47;;;;;;;;;3.00;2.00;;;;;39.69;16.75;102043.06;5073831;28;46561;-62
2022/10/11 11:08:26;;;;;;;;;3.60;3.60;;;;;40.23;17.03;102041.16;5045225;28;45475;-62
2022/10/11 11:11:24;;;;;;;;;4.80;4.00;;;;;40.71;16.46;102042.53;5070949;27;45342;-62
2022/10/11 11:14:26;;;;;;;;;2.20;2.20;;;;;40.88;15.80;102041.56;5050706;28;45540;-62
2022/10/11 11:17:14;;;;;;;;;0.80;0.00;;;;;40.86;16.16;102048.25;5053581;28;46721;-63
2022/10/11 11:19:53;;;;;;;;;4.20;4.00;;;;;41.38;15.77;102041.75;5054777;28;45249;-64
2022/10/11 11:22:56;;;;;;;;;2.20;2.20;;;;;41.72;14.99;102028.78;5055119;28;45718;-63
2022/10/11 11:25:40;;;;;;;;;2.00;2.00;;;;;41.97;15.63;102037.03;5056316;28;45832;-62
2022/10/11 11:28:24;;;;;;;;;4.00;2.80;;;;;42.08;14.81;102038.59;5057420;28;47449;-64
2022/10/11 11:31:28;;;;;;;;;3.00;2.00;;;;;42.11;14.51;102025.34;5058591;28;45364;-61
2022/10/11 11:34:20;;;;;;;;;3.60;3.60;;;;;41.36;14.07;102019.06;5051391;28;45561;-64
2022/10/11 11:36:51;;;;;;;;;6.40;4.60;;;;;40.65;15.50;102026.66;5053993;28;45822;-62
2022/10/11 11:39:21;;;;;;;;;2.60;2.40;;;;;40.78;15.51;102029.84;5063334;27;46451;-62
2022/10/11 11:41:59;;;;;;;;;4.20;1.80;;;;;40.78;15.63;102013.38;5054176;28;45506;-63
2022/10/11 11:44:39;;;;;;;;;2.00;2.00;;;;;40.65;16.14;102016.56;5055348;28;45662;-63